createdAt,value
2022-12-23T00:01:02.368Z,5.32
2022-12-23T00:03:30.994Z,5.29
2022-12-23T00:05:58.484Z,5.33
2022-12-23T00:08:27.084Z,5.31
2022-12-23T00:10:56.612Z,5.30
2022-12-23T00:13:42.065Z,5.28
2022-12-23T00:16:12.926Z,5.29
2022-12-23T00:18:41.068Z,5.27
2022-12-23T00:21:12.644Z,5.24
2022-12-23T00:23:43.151Z,5.17
2022-12-23T00:26:22.031Z,5.14
2022-12-23T00:28:50.052Z,5.15
2022-12-23T00:31:19.019Z,4.91
2022-12-23T00:33:51.018Z,5.00
2022-12-23T00:36:30.074Z,5.06
2022-12-23T00:39:16.829Z,5.05
2022-12-23T00:42:03.349Z,4.88
2022-12-23T00:44:30.465Z,5.01
2022-12-23T00:46:57.768Z,5.04
2022-12-23T00:49:43.272Z,5.04
2022-12-23T00:52:13.090Z,5.03
2022-12-23T00:54:40.389Z,5.03
2022-12-23T00:57:07.391Z,5.00
2022-12-23T00:59:34.528Z,5.00
2022-12-23T01:02:20.687Z,4.93
2022-12-23T01:05:06.377Z,4.94
2022-12-23T01:07:33.582Z,4.92
2022-12-23T01:10:00.633Z,4.88
2022-12-23T01:12:27.962Z,4.83
2022-12-23T01:14:55.035Z,4.80
2022-12-23T01:17:22.144Z,4.77
2022-12-23T01:19:49.271Z,4.73
2022-12-23T01:22:16.349Z,4.72
2022-12-23T01:24:43.379Z,4.71
2022-12-23T01:27:10.372Z,4.68
2022-12-23T01:29:37.580Z,4.72
2022-12-23T01:32:04.809Z,4.70
2022-12-23T01:34:36.687Z,4.66
2022-12-23T01:37:04.368Z,4.64
2022-12-23T01:39:31.332Z,4.72
2022-12-23T01:42:16.889Z,4.70
2022-12-23T01:44:51.297Z,4.62
2022-12-23T01:47:49.282Z,4.64
2022-12-23T01:50:35.656Z,4.58
2022-12-23T01:53:08.646Z,4.54
2022-12-23T01:55:50.793Z,4.48
2022-12-23T01:58:26.140Z,4.42
2022-12-23T02:01:14.743Z,4.34
2022-12-23T02:03:42.651Z,4.29
2022-12-23T02:06:42.674Z,4.26
2022-12-23T02:09:19.295Z,4.23
2022-12-23T02:11:52.172Z,4.19
2022-12-23T02:15:02.846Z,4.18
2022-12-23T02:17:52.134Z,4.17
2022-12-23T02:20:22.077Z,4.20
2022-12-23T02:22:54.692Z,4.16
2022-12-23T02:25:30.419Z,4.13
2022-12-23T02:28:21.438Z,4.12
2022-12-23T02:31:10.784Z,4.12
2022-12-23T02:34:00.970Z,4.10
2022-12-23T02:36:37.216Z,4.10
2022-12-23T02:39:15.190Z,4.11
2022-12-23T02:41:57.815Z,4.14
2022-12-23T02:44:30.152Z,4.15
2022-12-23T02:47:02.057Z,4.11
2022-12-23T02:49:35.557Z,4.11
2022-12-23T02:52:08.170Z,4.07
2022-12-23T02:54:42.060Z,4.05
2022-12-23T02:57:13.165Z,4.01
2022-12-23T02:59:45.973Z,3.89
2022-12-23T03:02:13.406Z,3.84
2022-12-23T03:04:42.425Z,3.90
2022-12-23T03:07:23.943Z,3.89
2022-12-23T03:10:35.441Z,3.91
2022-12-23T03:13:23.493Z,3.94
2022-12-23T03:16:05.518Z,3.98
2022-12-23T03:18:56.792Z,4.04
2022-12-23T03:21:45.049Z,4.08
2022-12-23T03:24:41.579Z,4.14
2022-12-23T03:27:42.991Z,4.20
2022-12-23T03:30:16.948Z,4.24
2022-12-23T03:32:58.248Z,4.26
2022-12-23T03:35:32.483Z,4.28
2022-12-23T03:38:02.969Z,4.30
2022-12-23T03:40:41.510Z,4.32
2022-12-23T03:43:15.072Z,4.35
2022-12-23T03:45:52.829Z,4.34
2022-12-23T03:48:40.309Z,4.36
2022-12-23T03:51:17.032Z,4.39
2022-12-23T03:53:52.089Z,4.34
2022-12-23T03:56:31.177Z,4.31
2022-12-23T03:59:01.474Z,4.21
2022-12-23T04:02:05.749Z,4.27
2022-12-23T04:05:01.308Z,4.31
2022-12-23T04:07:34.650Z,4.33
2022-12-23T04:10:01.787Z,4.40
2022-12-23T04:12:30.599Z,4.35
2022-12-23T04:14:58.105Z,4.40
2022-12-23T04:17:25.212Z,4.47
2022-12-23T04:19:53.374Z,4.49
2022-12-23T04:22:20.626Z,4.53
2022-12-23T04:24:47.776Z,4.54
2022-12-23T04:27:15.733Z,4.55
2022-12-23T04:29:43.990Z,4.55
2022-12-23T04:32:11.424Z,4.50
2022-12-23T04:34:38.461Z,4.57
2022-12-23T04:37:05.507Z,4.61
2022-12-23T04:39:32.597Z,4.61
2022-12-23T04:41:59.598Z,4.60
2022-12-23T04:44:26.595Z,4.51
2022-12-23T04:46:53.899Z,4.51
2022-12-23T04:49:20.930Z,4.57
2022-12-23T04:51:47.954Z,4.51
2022-12-23T04:54:15.075Z,4.46
2022-12-23T04:56:42.073Z,4.47
2022-12-23T04:59:10.533Z,4.46
2022-12-23T05:01:37.752Z,4.46
2022-12-23T05:04:05.058Z,4.51
2022-12-23T05:06:32.047Z,4.51
2022-12-23T05:08:59.050Z,4.52
2022-12-23T05:11:26.138Z,4.51
2022-12-23T05:13:53.192Z,4.57
2022-12-23T05:16:20.423Z,4.57
2022-12-23T05:18:47.460Z,4.55
2022-12-23T05:21:14.506Z,4.55
2022-12-23T05:23:41.663Z,4.60
2022-12-23T05:26:08.687Z,4.64
2022-12-23T05:28:35.967Z,4.75
2022-12-23T05:31:08.408Z,4.78
2022-12-23T05:33:36.001Z,4.79
2022-12-23T05:36:03.323Z,4.86
2022-12-23T05:38:30.779Z,4.88
2022-12-23T05:40:58.205Z,4.92
2022-12-23T05:43:25.210Z,4.95
2022-12-23T05:45:52.375Z,4.95
2022-12-23T05:48:19.690Z,5.00
2022-12-23T05:50:51.026Z,5.03
2022-12-23T05:53:18.112Z,4.96
2022-12-23T05:55:45.474Z,4.97
2022-12-23T05:58:12.495Z,4.89
2022-12-23T06:00:39.566Z,4.84
2022-12-23T06:03:06.791Z,4.78
2022-12-23T06:05:34.035Z,4.79
2022-12-23T06:08:01.123Z,4.74
2022-12-23T06:10:28.215Z,4.71
2022-12-23T06:12:55.315Z,4.73
2022-12-23T06:15:22.388Z,4.74
2022-12-23T06:17:50.254Z,4.65
2022-12-23T06:20:20.652Z,4.66
2022-12-23T06:22:48.337Z,4.68
2022-12-23T06:25:15.588Z,4.67
2022-12-23T06:27:42.626Z,4.66
2022-12-23T06:30:10.716Z,4.67
2022-12-23T06:32:38.856Z,4.65
2022-12-23T06:35:07.673Z,4.62
2022-12-23T06:37:34.993Z,4.64
2022-12-23T06:40:02.391Z,4.62
2022-12-23T06:42:29.567Z,4.61
2022-12-23T06:44:56.507Z,4.58
2022-12-23T06:47:23.607Z,4.56
2022-12-23T06:49:50.586Z,4.53
2022-12-23T06:52:17.763Z,4.47
2022-12-23T06:54:44.874Z,4.60
2022-12-23T06:57:12.013Z,4.72
2022-12-23T06:59:38.985Z,4.79
2022-12-23T07:02:06.826Z,4.85
2022-12-23T07:04:34.048Z,4.95
2022-12-23T07:07:01.038Z,5.02
2022-12-23T07:09:28.193Z,5.04
2022-12-23T07:11:55.167Z,5.07
2022-12-23T07:14:22.204Z,5.07
2022-12-23T07:16:49.301Z,5.04
2022-12-23T07:19:16.445Z,5.04
2022-12-23T07:21:43.408Z,5.09
2022-12-23T07:24:10.665Z,4.86
2022-12-23T07:26:37.746Z,4.96
2022-12-23T07:29:05.385Z,4.89
2022-12-23T07:31:32.505Z,4.91
2022-12-23T07:33:59.776Z,4.94
2022-12-23T07:36:27.032Z,4.86
2022-12-23T07:38:54.101Z,4.81
2022-12-23T07:41:21.194Z,4.79
2022-12-23T07:43:48.190Z,4.78
2022-12-23T07:46:15.366Z,4.78
2022-12-23T07:48:43.443Z,4.83
2022-12-23T07:51:10.800Z,4.89
2022-12-23T07:53:37.944Z,4.91
2022-12-23T07:56:05.512Z,4.96
2022-12-23T07:58:32.647Z,5.07
2022-12-23T08:01:05.694Z,5.23
2022-12-23T08:03:32.922Z,5.36
2022-12-23T08:06:05.965Z,5.45
2022-12-23T08:08:33.706Z,5.55
2022-12-23T08:11:03.048Z,5.61
2022-12-23T08:13:32.025Z,5.61
2022-12-23T08:16:00.889Z,5.62
2022-12-23T08:18:30.809Z,5.59
2022-12-23T08:21:00.447Z,5.58
2022-12-23T08:23:28.901Z,5.56
2022-12-23T08:26:13.677Z,5.63
2022-12-23T08:28:42.517Z,5.70
2022-12-23T08:31:18.402Z,5.72
2022-12-23T08:33:48.353Z,5.79
2022-12-23T08:36:23.400Z,5.85
2022-12-23T08:38:53.065Z,5.93
2022-12-23T08:41:24.957Z,6.05
2022-12-23T08:43:52.366Z,6.11
2022-12-23T08:46:20.406Z,6.25
2022-12-23T08:48:49.795Z,6.30
2022-12-23T08:51:19.028Z,6.40
2022-12-23T08:53:46.844Z,6.53
2022-12-23T08:56:18.966Z,6.63
2022-12-23T08:58:47.824Z,6.79
2022-12-23T09:01:17.142Z,6.93
2022-12-23T09:03:45.285Z,7.03
2022-12-23T09:06:26.540Z,7.14
2022-12-23T09:08:56.363Z,7.26
2022-12-23T09:11:26.265Z,7.32
2022-12-23T09:13:53.812Z,7.43
2022-12-23T09:16:21.461Z,7.52
2022-12-23T09:18:48.567Z,7.58
2022-12-23T09:21:18.746Z,7.67
2022-12-23T09:23:45.916Z,7.77
2022-12-23T09:26:29.067Z,7.86
2022-12-23T09:28:57.444Z,8.12
2022-12-23T09:31:27.983Z,8.09
2022-12-23T09:33:59.552Z,8.26
2022-12-23T09:36:26.547Z,8.41
2022-12-23T09:38:55.733Z,8.65
2022-12-23T09:41:50.775Z,8.90
2022-12-23T09:44:37.647Z,9.07
2022-12-23T09:47:13.567Z,9.28
2022-12-23T09:49:47.625Z,9.53
2022-12-23T09:52:41.735Z,9.62
2022-12-23T09:55:12.110Z,9.70
2022-12-23T09:58:06.747Z,9.91
2022-12-23T10:00:43.014Z,10.06
2022-12-23T10:03:35.847Z,10.23
2022-12-23T10:06:11.541Z,10.33
2022-12-23T10:09:01.485Z,10.44
2022-12-23T10:11:32.615Z,10.76
2022-12-23T10:14:25.291Z,10.85
2022-12-23T10:17:12.448Z,11.02
2022-12-23T10:19:45.987Z,11.21
2022-12-23T10:22:39.507Z,11.35
2022-12-23T10:25:15.807Z,11.52
2022-12-23T10:27:44.266Z,11.62
2022-12-23T10:30:42.626Z,11.74
2022-12-23T10:33:28.527Z,11.93
2022-12-23T10:36:04.406Z,12.19
2022-12-23T10:38:58.507Z,12.42
2022-12-23T10:41:48.531Z,12.63
2022-12-23T10:44:56.648Z,13.01
2022-12-23T10:47:53.348Z,13.33
2022-12-23T10:50:33.656Z,13.69
2022-12-23T10:53:05.048Z,14.01
2022-12-23T10:55:38.669Z,14.33
2022-12-23T10:58:17.809Z,14.64
2022-12-23T11:01:14.996Z,14.91
2022-12-23T11:04:09.130Z,15.21
2022-12-23T11:06:43.800Z,15.45
2022-12-23T11:09:28.477Z,15.60
2022-12-23T11:12:02.340Z,15.78
2022-12-23T11:14:37.859Z,16.04
2022-12-23T11:17:17.942Z,16.07
2022-12-23T11:19:45.229Z,16.14
2022-12-23T11:22:23.529Z,16.19
2022-12-23T11:24:51.709Z,16.28
2022-12-23T11:27:20.028Z,16.48
2022-12-23T11:29:54.167Z,16.83
2022-12-23T11:32:25.083Z,16.82
2022-12-23T11:34:53.574Z,17.10
2022-12-23T11:37:42.591Z,17.00
2022-12-23T11:40:32.923Z,17.26
2022-12-23T11:43:03.692Z,17.41
2022-12-23T11:45:35.729Z,17.62
2022-12-23T11:48:06.228Z,17.74
2022-12-23T11:50:37.464Z,18.01
2022-12-23T11:53:11.788Z,18.24
2022-12-23T11:56:03.653Z,18.47
2022-12-23T11:58:37.108Z,18.75
2022-12-23T12:13:41.749Z,20.63
2022-12-23T12:16:14.400Z,21.23
2022-12-23T12:18:47.090Z,21.70
2022-12-23T12:21:31.558Z,22.04
2022-12-23T12:24:24.853Z,22.16
2022-12-23T12:26:54.950Z,22.30
2022-12-23T12:29:36.953Z,22.74
2022-12-23T12:32:07.795Z,22.76
2022-12-23T12:34:37.887Z,22.98
2022-12-23T12:37:27.946Z,23.18
2022-12-23T12:40:04.256Z,23.57
2022-12-23T12:42:42.292Z,24.05
2022-12-23T12:45:18.481Z,24.56
2022-12-23T12:48:11.652Z,25.24
2022-12-23T12:51:05.987Z,26.26
2022-12-23T12:53:34.019Z,26.96
2022-12-23T12:56:11.175Z,27.46
2022-12-23T12:58:39.545Z,27.77
2022-12-23T13:01:18.594Z,27.27
2022-12-23T13:04:21.639Z,26.48
2022-12-23T13:07:02.165Z,25.74
2022-12-23T13:09:48.046Z,24.86
2022-12-23T13:12:29.391Z,23.73
2022-12-23T13:15:05.716Z,23.25
2022-12-23T13:17:39.685Z,23.17
2022-12-23T13:20:27.751Z,23.25
2022-12-23T13:23:27.135Z,23.33
2022-12-23T13:26:01.350Z,23.03
2022-12-23T13:29:16.045Z,22.71
2022-12-23T13:31:55.293Z,22.14
2022-12-23T13:34:46.686Z,21.88
2022-12-23T13:37:30.572Z,21.43
2022-12-23T13:40:23.648Z,20.77
2022-12-23T13:42:55.804Z,20.04
2022-12-23T13:45:31.936Z,19.76
2022-12-23T13:48:19.968Z,19.20
2022-12-23T13:50:55.619Z,18.74
2022-12-23T13:53:48.526Z,18.43
2022-12-23T13:56:30.122Z,18.03
2022-12-23T13:58:58.705Z,17.69
2022-12-23T14:01:43.868Z,17.46
2022-12-23T14:04:33.569Z,17.21
2022-12-23T14:07:23.331Z,17.02
2022-12-23T14:09:57.248Z,16.84
2022-12-23T14:12:31.451Z,16.68
2022-12-23T14:15:39.513Z,16.56
2022-12-23T14:18:35.085Z,16.33
2022-12-23T14:21:33.390Z,16.14
2022-12-23T14:24:28.987Z,15.86
2022-12-23T14:27:05.028Z,15.58
2022-12-23T14:30:10.785Z,15.46
2022-12-23T14:33:00.558Z,15.30
2022-12-23T14:35:30.365Z,15.10
2022-12-23T14:38:23.172Z,14.97
2022-12-23T14:40:51.902Z,14.84
2022-12-23T14:43:22.605Z,14.68
2022-12-23T14:45:50.869Z,14.50
2022-12-23T14:48:36.163Z,14.36
2022-12-23T14:51:06.967Z,14.25
2022-12-23T14:53:35.373Z,14.08
2022-12-23T14:56:08.509Z,13.89
2022-12-23T14:58:54.220Z,13.80
2022-12-23T15:01:51.986Z,13.64
2022-12-23T15:04:22.409Z,13.48
2022-12-23T15:07:02.082Z,13.37
2022-12-23T15:09:40.223Z,13.20
2022-12-23T15:12:16.218Z,13.02
2022-12-23T15:15:11.990Z,12.88
2022-12-23T15:17:40.047Z,12.78
2022-12-23T15:20:10.099Z,12.71
2022-12-23T15:22:38.108Z,12.65
2022-12-23T15:25:18.576Z,12.53
2022-12-23T15:27:45.768Z,12.41
2022-12-23T15:30:14.489Z,12.31
2022-12-23T15:32:48.508Z,12.23
2022-12-23T15:35:25.394Z,12.15
2022-12-23T15:37:52.809Z,12.09
2022-12-23T15:40:37.149Z,12.08
2022-12-23T15:43:24.121Z,11.98
2022-12-23T15:45:52.348Z,11.89
2022-12-23T15:48:33.135Z,11.78
2022-12-23T15:51:06.518Z,11.73
2022-12-23T15:53:39.165Z,11.70
2022-12-23T15:56:12.108Z,11.67
2022-12-23T15:58:42.585Z,11.65
2022-12-23T16:01:15.688Z,11.63
2022-12-23T16:03:53.361Z,11.58
2022-12-23T16:06:25.594Z,11.56
2022-12-23T16:09:06.888Z,11.47
2022-12-23T16:11:53.501Z,11.41
2022-12-23T16:14:31.515Z,11.36
2022-12-23T16:17:00.508Z,11.32
2022-12-23T16:19:39.083Z,11.28
2022-12-23T16:22:20.383Z,11.20
2022-12-23T16:24:51.820Z,11.13
2022-12-23T16:27:32.270Z,11.06
2022-12-23T16:30:02.677Z,10.97
2022-12-23T16:32:29.801Z,10.89
2022-12-23T16:34:56.877Z,10.82
2022-12-23T16:37:23.935Z,10.79
2022-12-23T16:39:50.986Z,10.77
2022-12-23T16:42:19.076Z,10.75
2022-12-23T16:44:46.127Z,10.68
2022-12-23T16:47:17.691Z,10.66
2022-12-23T16:49:45.210Z,10.71
2022-12-23T16:52:14.513Z,10.60
2022-12-23T16:54:42.775Z,10.55
2022-12-23T16:57:10.636Z,10.50
2022-12-23T16:59:41.278Z,10.37
2022-12-23T17:02:21.423Z,10.31
2022-12-23T17:04:48.606Z,10.23
2022-12-23T17:07:15.629Z,10.20
2022-12-23T17:09:42.625Z,10.14
2022-12-23T17:12:10.226Z,10.10
2022-12-23T17:14:37.267Z,10.08
2022-12-23T17:17:13.582Z,10.07
2022-12-23T17:19:40.695Z,10.06
2022-12-23T17:22:13.065Z,10.05
2022-12-23T17:24:40.245Z,10.05
2022-12-23T17:27:15.946Z,10.05
2022-12-23T17:29:43.370Z,10.02
2022-12-23T17:32:15.299Z,9.98
2022-12-23T17:34:42.531Z,9.95
2022-12-23T17:37:20.254Z,9.93
2022-12-23T17:39:48.405Z,9.90
2022-12-23T17:42:24.898Z,9.90
2022-12-23T17:44:52.840Z,9.91
2022-12-23T17:47:22.653Z,9.90
2022-12-23T17:49:49.944Z,9.91
2022-12-23T17:52:20.105Z,9.91
2022-12-23T17:54:49.147Z,9.90
2022-12-23T17:57:20.594Z,9.89
2022-12-23T17:59:49.286Z,9.91
2022-12-23T18:02:38.370Z,9.93
2022-12-23T18:05:27.875Z,9.94
2022-12-23T18:08:01.129Z,9.94
2022-12-23T18:10:32.812Z,9.96
2022-12-23T18:13:02.162Z,9.96
2022-12-23T18:15:39.992Z,9.87
2022-12-23T18:18:24.113Z,9.87
2022-12-23T18:20:57.459Z,9.87
2022-12-23T18:23:29.956Z,9.85
2022-12-23T18:25:57.838Z,9.85
2022-12-23T18:28:25.464Z,9.82
2022-12-23T18:30:55.219Z,9.82
2022-12-23T18:33:24.335Z,9.82
2022-12-23T18:35:51.418Z,9.83
2022-12-23T18:38:18.822Z,9.80
2022-12-23T18:40:46.252Z,9.77
2022-12-23T18:43:22.074Z,9.77
2022-12-23T18:45:53.273Z,9.77
2022-12-23T18:48:21.646Z,9.76
2022-12-23T18:50:49.178Z,9.76
2022-12-23T18:53:23.749Z,9.78
2022-12-23T18:55:52.091Z,9.74
2022-12-23T18:58:19.674Z,9.75
2022-12-23T19:00:47.923Z,9.68
2022-12-23T19:03:23.913Z,9.67
2022-12-23T19:05:52.505Z,9.69
2022-12-23T19:08:26.247Z,9.70
2022-12-23T19:10:54.329Z,9.70
2022-12-23T19:13:21.403Z,9.70
2022-12-23T19:15:48.524Z,9.70
2022-12-23T19:18:18.168Z,9.70
2022-12-23T19:20:46.484Z,9.73
2022-12-23T19:23:14.066Z,9.77
2022-12-23T19:25:46.193Z,9.73
2022-12-23T19:28:19.517Z,9.77
2022-12-23T19:30:46.644Z,9.77
2022-12-23T19:33:13.687Z,9.74
2022-12-23T19:35:44.541Z,9.72
2022-12-23T19:38:12.696Z,9.68
2022-12-23T19:40:40.248Z,9.71
2022-12-23T19:43:07.775Z,9.72
2022-12-23T19:45:34.943Z,9.73
2022-12-23T19:48:02.021Z,9.73
2022-12-23T19:50:29.116Z,9.72
2022-12-23T19:52:56.683Z,9.72
2022-12-23T19:55:24.020Z,9.72
2022-12-23T19:57:51.978Z,9.70
2022-12-23T20:00:19.098Z,9.66
2022-12-23T20:02:46.235Z,9.64
2022-12-23T20:05:13.389Z,9.62
2022-12-23T20:07:40.527Z,9.65
2022-12-23T20:10:08.206Z,9.57
2022-12-23T20:12:35.247Z,9.55
2022-12-23T20:15:02.403Z,9.52
2022-12-23T20:17:29.406Z,9.50
2022-12-23T20:19:56.412Z,9.47
2022-12-23T20:22:23.530Z,9.47
2022-12-23T20:24:51.186Z,9.43
2022-12-23T20:27:22.677Z,9.46
2022-12-23T20:29:53.328Z,9.48
2022-12-23T20:32:21.246Z,9.47
2022-12-23T20:34:50.193Z,9.51
2022-12-23T20:37:17.850Z,9.56
2022-12-23T20:39:44.839Z,9.58
2022-12-23T20:42:11.892Z,9.52
2022-12-23T20:44:39.002Z,9.57
2022-12-23T20:47:06.630Z,9.61
2022-12-23T20:49:33.746Z,9.55
2022-12-23T20:52:01.304Z,9.52
2022-12-23T20:54:33.084Z,9.59
2022-12-23T20:57:01.953Z,9.61
2022-12-23T20:59:29.310Z,9.65
2022-12-23T21:01:59.371Z,9.64
2022-12-23T21:04:26.676Z,9.65
2022-12-23T21:06:53.929Z,9.62
2022-12-23T21:09:20.957Z,9.67
2022-12-23T21:11:48.717Z,9.69
2022-12-23T21:14:16.309Z,9.70
2022-12-23T21:16:43.865Z,9.72
2022-12-23T21:19:17.355Z,9.78
2022-12-23T21:21:45.429Z,9.80
2022-12-23T21:24:13.174Z,9.79
2022-12-23T21:26:40.610Z,9.79
2022-12-23T21:29:09.830Z,9.74
2022-12-23T21:31:39.428Z,9.71
2022-12-23T21:34:07.625Z,9.68
2022-12-23T21:36:37.238Z,9.65
2022-12-23T21:39:05.835Z,9.62
2022-12-23T21:41:38.011Z,9.55
2022-12-23T21:44:05.812Z,9.50
2022-12-23T21:46:33.168Z,9.48
2022-12-23T21:49:00.742Z,9.43
2022-12-23T21:51:36.921Z,9.38
2022-12-23T21:54:06.737Z,9.35
2022-12-23T21:56:33.788Z,9.29
2022-12-23T21:59:03.966Z,9.26
2022-12-23T22:01:31.666Z,9.28
2022-12-23T22:03:59.087Z,9.25
2022-12-23T22:06:28.897Z,9.24
2022-12-23T22:08:57.269Z,9.21
2022-12-23T22:11:25.324Z,9.20
2022-12-23T22:13:53.185Z,9.14
2022-12-23T22:16:22.453Z,9.10
2022-12-23T22:18:50.786Z,9.10
2022-12-23T22:21:19.208Z,9.09
2022-12-23T22:23:47.066Z,9.06
2022-12-23T22:26:22.129Z,8.99
2022-12-23T22:28:51.566Z,9.03
2022-12-23T22:31:24.330Z,9.03
2022-12-23T22:33:51.444Z,9.02
2022-12-23T22:36:18.583Z,9.05
2022-12-23T22:38:55.129Z,9.04
2022-12-23T22:41:23.412Z,9.06
2022-12-23T22:43:50.319Z,9.02
2022-12-23T22:46:18.676Z,9.02
2022-12-23T22:48:46.431Z,8.98
2022-12-23T22:51:25.025Z,8.93
2022-12-23T22:53:52.193Z,8.93
2022-12-23T22:56:21.057Z,8.90
2022-12-23T22:58:49.332Z,8.85
2022-12-23T23:01:21.625Z,8.83
2022-12-23T23:03:51.348Z,8.75
2022-12-23T23:06:19.015Z,8.69
2022-12-23T23:08:46.108Z,8.65
2022-12-23T23:11:13.235Z,8.57
2022-12-23T23:13:40.336Z,8.53
2022-12-23T23:16:07.714Z,8.51
2022-12-23T23:18:34.918Z,8.49
2022-12-23T23:21:01.978Z,8.43
2022-12-23T23:23:29.066Z,8.41
2022-12-23T23:25:56.072Z,8.28
2022-12-23T23:28:23.093Z,8.30
2022-12-23T23:31:03.615Z,8.19
2022-12-23T23:33:37.267Z,8.14
2022-12-23T23:36:04.832Z,8.18
2022-12-23T23:38:31.890Z,8.17
2022-12-23T23:40:59.133Z,8.19
2022-12-23T23:43:26.204Z,8.14
2022-12-23T23:45:53.211Z,8.18
2022-12-23T23:48:21.227Z,8.07
2022-12-23T23:50:48.693Z,8.14
2022-12-23T23:53:16.551Z,8.16
2022-12-23T23:55:43.691Z,8.21
2022-12-23T23:58:12.085Z,8.16
